createdAt,value
2018-07-04T00:00:38.228Z,95.20
2018-07-04T00:03:17.964Z,95.60
2018-07-04T00:05:57.541Z,96.40
2018-07-04T00:08:37.098Z,95.20
2018-07-04T00:11:16.852Z,95.80
2018-07-04T00:13:56.551Z,96.10
2018-07-04T00:16:36.304Z,96.40
2018-07-04T00:19:16.113Z,96.80
2018-07-04T00:21:55.738Z,97.20
2018-07-04T00:24:35.332Z,96.90
2018-07-04T00:27:14.936Z,95.90
2018-07-04T00:29:54.626Z,96.20
2018-07-04T00:32:34.421Z,95.50
2018-07-04T00:35:13.901Z,95.60
2018-07-04T00:37:53.660Z,95.40
2018-07-04T00:40:33.407Z,95.70
2018-07-04T00:43:12.933Z,95.50
2018-07-04T00:45:52.410Z,95.70
2018-07-04T00:48:32.200Z,95.90
2018-07-04T00:51:11.731Z,95.30
2018-07-04T00:53:51.387Z,95.80
2018-07-04T00:56:31.218Z,96.30
2018-07-04T00:59:10.889Z,96.50
2018-07-04T01:01:50.604Z,96.30
2018-07-04T01:04:30.321Z,96.70
2018-07-04T01:07:10.065Z,96.70
2018-07-04T01:09:49.772Z,96.70
2018-07-04T01:12:29.530Z,96.30
2018-07-04T01:15:09.110Z,97.30
2018-07-04T01:17:48.696Z,96.90
2018-07-04T01:20:32.567Z,96.00
2018-07-04T01:23:12.341Z,96.70
2018-07-04T01:25:52.013Z,97.50
2018-07-04T01:28:37.195Z,96.30
2018-07-04T01:31:16.870Z,96.90
2018-07-04T01:33:56.457Z,96.80
2018-07-04T01:36:36.093Z,96.80
2018-07-04T01:39:15.716Z,95.80
2018-07-04T01:41:55.345Z,95.70
2018-07-04T01:44:35.037Z,96.50
2018-07-04T01:47:14.469Z,97.00
2018-07-04T01:49:54.032Z,97.00
2018-07-04T01:52:33.548Z,96.90
2018-07-04T01:55:13.020Z,97.30
2018-07-04T01:57:52.617Z,97.30
2018-07-04T02:00:32.241Z,97.80
2018-07-04T02:03:11.925Z,97.70
2018-07-04T02:05:51.350Z,97.90
2018-07-04T02:08:30.949Z,98.20
2018-07-04T02:11:10.528Z,98.10
2018-07-04T02:13:50.125Z,98.40
2018-07-04T02:16:29.747Z,98.70
2018-07-04T02:19:09.501Z,98.30
2018-07-04T02:21:48.975Z,98.60
2018-07-04T02:24:28.594Z,98.80
2018-07-04T02:27:08.160Z,98.60
2018-07-04T02:29:47.664Z,98.60
2018-07-04T02:32:27.280Z,98.40
2018-07-04T02:35:06.909Z,98.50
2018-07-04T02:37:46.592Z,98.20
2018-07-04T02:40:26.104Z,98.10
2018-07-04T02:43:05.780Z,97.40
2018-07-04T02:45:45.457Z,96.90
2018-07-04T02:48:25.185Z,97.90
2018-07-04T02:51:04.893Z,97.80
2018-07-04T02:53:44.508Z,97.00
2018-07-04T02:56:24.168Z,97.40
2018-07-04T02:59:03.911Z,97.50
2018-07-04T03:01:43.625Z,97.50
2018-07-04T03:04:23.420Z,96.90
2018-07-04T03:07:03.008Z,97.10
2018-07-04T03:09:42.666Z,97.10
2018-07-04T03:12:22.301Z,97.50
2018-07-04T03:15:01.923Z,96.40
2018-07-04T04:39:54.277Z,96.30
2018-07-04T04:42:34.726Z,97.50
2018-07-04T04:48:02.794Z,98.40
2018-07-04T04:50:42.437Z,98.20
2018-07-04T04:53:22.063Z,98.20
2018-07-04T04:56:11.449Z,98.10
2018-07-04T05:04:40.020Z,98.30
2018-07-04T05:07:23.481Z,98.50
2018-07-04T05:10:03.249Z,98.90
2018-07-04T05:12:42.866Z,99.00
2018-07-04T05:15:27.481Z,99.40
2018-07-04T05:18:07.306Z,99.10
2018-07-04T05:21:22.393Z,98.80
2018-07-04T05:24:02.538Z,99.20
2018-07-04T05:26:44.313Z,98.90
2018-07-04T05:29:25.301Z,98.30
2018-07-04T05:32:10.801Z,98.80
2018-07-04T05:34:56.879Z,98.40
2018-07-04T05:37:41.001Z,97.80
2018-07-04T05:40:22.007Z,96.90
2018-07-04T05:43:29.066Z,97.00
2018-07-04T05:46:08.855Z,96.50
2018-07-04T05:48:48.502Z,96.30
2018-07-04T05:51:29.226Z,96.80
2018-07-04T07:36:28.236Z,94.80
2018-07-04T07:39:07.778Z,95.20
2018-07-04T07:41:47.305Z,95.60
2018-07-04T07:44:26.993Z,96.10
2018-07-04T07:47:06.645Z,95.30
2018-07-04T07:49:46.242Z,95.90
2018-07-04T07:52:25.929Z,95.90
2018-07-04T07:55:05.572Z,94.80
2018-07-04T07:57:45.294Z,94.30
2018-07-04T08:00:25.001Z,94.10
2018-07-04T08:03:04.809Z,93.80
2018-07-04T08:05:44.576Z,93.70
2018-07-04T08:08:24.201Z,92.80
2018-07-04T08:11:03.806Z,93.00
2018-07-04T08:13:43.458Z,92.50
2018-07-04T08:16:23.073Z,92.80
2018-07-04T08:19:02.753Z,93.30
2018-07-04T08:21:42.300Z,91.00
2018-07-04T08:24:21.869Z,89.70
2018-07-04T08:27:01.544Z,88.00
2018-07-04T08:29:41.188Z,84.80
2018-07-04T08:32:20.844Z,84.70
2018-07-04T08:35:00.355Z,84.70
2018-07-04T08:37:39.961Z,85.50
2018-07-04T08:40:19.519Z,87.20
2018-07-04T08:42:59.176Z,86.40
2018-07-04T08:45:38.718Z,85.40
2018-07-04T08:48:18.313Z,83.90
2018-07-04T08:50:58.005Z,84.90
2018-07-04T08:53:37.532Z,82.50
2018-07-04T08:58:50.957Z,80.50
2018-07-04T09:01:30.658Z,76.70
2018-07-04T09:04:10.309Z,77.90
2018-07-04T09:06:50.064Z,73.90
2018-07-04T09:09:29.749Z,73.60
2018-07-04T09:12:09.309Z,73.40
2018-07-04T09:14:48.724Z,73.30
2018-07-04T09:17:28.339Z,71.50
2018-07-04T09:20:07.881Z,74.20
2018-07-04T09:22:47.684Z,70.00
2018-07-04T09:25:27.396Z,69.80
2018-07-04T09:28:07.125Z,69.40
2018-07-04T09:30:46.738Z,69.30
2018-07-04T09:33:26.357Z,69.30
2018-07-04T09:36:05.904Z,67.80
2018-07-04T09:38:45.557Z,68.80
2018-07-04T09:41:25.156Z,68.90
2018-07-04T09:44:04.734Z,67.70
2018-07-04T09:46:44.349Z,66.10
2018-07-04T09:49:23.978Z,66.70
2018-07-04T09:52:03.700Z,64.20
2018-07-04T09:54:43.325Z,63.10
2018-07-04T09:57:23.085Z,60.70
2018-07-04T10:00:02.726Z,59.10
2018-07-04T10:02:42.400Z,59.00
2018-07-04T10:05:22.165Z,59.40
2018-07-04T10:08:01.933Z,61.00
2018-07-04T10:10:41.557Z,58.10
2018-07-04T10:13:21.322Z,60.70
2018-07-04T10:16:00.971Z,58.60
2018-07-04T10:18:40.498Z,60.00
2018-07-04T10:21:20.214Z,60.10
2018-07-04T10:23:59.853Z,57.30
2018-07-04T10:29:13.000Z,54.40
2018-07-04T10:31:52.647Z,55.80
2018-07-04T10:34:32.260Z,56.60
2018-07-04T10:37:12.032Z,57.90
2018-07-04T10:39:51.772Z,56.70
2018-07-04T10:42:31.304Z,54.70
2018-07-04T10:45:11.096Z,52.50
2018-07-04T10:47:50.844Z,51.70
2018-07-04T10:50:30.720Z,49.90
2018-07-04T10:53:10.163Z,52.70
2018-07-04T10:55:49.922Z,52.20
2018-07-04T10:58:29.399Z,47.90
2018-07-04T11:01:09.031Z,49.30
2018-07-04T11:03:48.581Z,49.30
2018-07-04T11:06:28.182Z,45.40
2018-07-04T11:09:07.841Z,45.10
2018-07-04T11:11:47.332Z,47.20
2018-07-04T11:14:27.072Z,45.20
2018-07-04T11:17:06.846Z,44.20
2018-07-04T11:19:46.312Z,45.30
2018-07-04T11:22:25.909Z,45.60
2018-07-04T11:25:05.285Z,44.30
2018-07-04T11:30:18.810Z,46.20
2018-07-04T11:32:58.569Z,46.10
2018-07-04T11:35:38.024Z,44.50
2018-07-04T11:38:17.764Z,45.10
2018-07-04T11:40:57.382Z,46.60
2018-07-04T11:43:37.134Z,44.20
2018-07-04T11:46:04.373Z,46.10
2018-07-04T11:48:31.607Z,44.10
2018-07-04T11:50:58.847Z,45.20
2018-07-04T11:53:26.106Z,46.20
2018-07-04T11:55:53.332Z,45.20
2018-07-04T11:58:20.579Z,45.80
2018-07-04T12:00:47.844Z,47.10
2018-07-04T12:03:20.346Z,49.40
2018-07-04T12:06:00.142Z,51.20
2018-07-04T12:08:27.397Z,53.70
2018-07-04T12:10:55.175Z,52.90
2018-07-04T12:13:23.693Z,54.00
2018-07-04T12:15:51.570Z,51.60
2018-07-04T12:18:18.889Z,53.50
2018-07-04T12:20:46.345Z,53.10
2018-07-04T12:23:14.267Z,51.60
2018-07-04T12:25:43.251Z,51.40
2018-07-04T12:28:10.492Z,52.00
2018-07-04T12:30:37.858Z,55.00
2018-07-04T12:33:05.183Z,53.90
2018-07-04T12:35:32.513Z,56.90
2018-07-04T12:37:59.783Z,62.10
2018-07-04T12:40:27.013Z,65.10
2018-07-04T12:42:54.236Z,73.00
2018-07-04T12:45:21.477Z,73.50
2018-07-04T12:47:48.698Z,74.90
2018-07-04T12:50:28.672Z,79.80
2018-07-04T12:52:55.939Z,78.40
2018-07-04T12:55:38.922Z,80.40
2018-07-04T12:58:19.805Z,81.50
2018-07-04T13:00:59.513Z,85.40
2018-07-04T13:03:39.057Z,87.80
2018-07-04T13:06:18.809Z,91.10
2018-07-04T13:08:58.452Z,90.80
2018-07-04T13:11:38.159Z,91.70
2018-07-04T13:14:17.853Z,92.00
2018-07-04T13:16:57.417Z,90.00
2018-07-04T13:19:37.057Z,89.60
2018-07-04T13:22:16.674Z,90.30
2018-07-04T13:24:56.529Z,89.70
2018-07-04T13:27:36.118Z,90.00
2018-07-04T13:32:48.999Z,89.50
2018-07-04T13:35:28.905Z,89.80
2018-07-04T13:38:08.413Z,86.00
2018-07-04T13:40:47.953Z,85.00
2018-07-04T13:43:27.658Z,84.20
2018-07-04T13:46:07.354Z,80.70
2018-07-04T13:48:47.147Z,79.40
2018-07-04T13:51:26.808Z,76.40
2018-07-04T13:54:06.294Z,78.50
2018-07-04T13:56:45.997Z,77.30
2018-07-04T13:59:25.699Z,76.30
2018-07-04T14:02:05.510Z,74.00
2018-07-04T14:04:45.176Z,73.00
2018-07-04T14:07:24.918Z,72.60
2018-07-04T14:10:04.471Z,72.10
2018-07-04T14:12:44.088Z,70.00
2018-07-04T14:15:23.817Z,70.40
2018-07-04T14:18:03.534Z,70.30
2018-07-04T14:20:43.437Z,68.00
2018-07-04T14:23:23.207Z,68.60
2018-07-04T14:26:02.900Z,70.00
2018-07-04T14:28:42.386Z,69.60
2018-07-04T14:31:22.081Z,67.80
2018-07-04T14:34:01.659Z,65.70
2018-07-04T14:36:41.270Z,66.40
2018-07-04T14:39:20.913Z,65.60
2018-07-04T14:42:00.553Z,64.00
2018-07-04T14:44:40.208Z,64.00
2018-07-04T14:47:19.901Z,66.20
2018-07-04T14:49:59.540Z,65.40
2018-07-04T14:52:39.740Z,65.60
2018-07-04T14:55:32.120Z,64.30
2018-07-04T14:58:22.406Z,65.60
2018-07-04T15:01:02.150Z,64.50
2018-07-04T15:03:41.838Z,59.00
2018-07-04T15:06:21.370Z,58.90
2018-07-04T15:09:01.008Z,59.80
2018-07-04T15:11:43.812Z,60.60
2018-07-04T15:14:37.206Z,58.80
2018-07-04T15:17:16.891Z,56.80
2018-07-04T15:22:47.387Z,56.00
2018-07-04T15:25:27.885Z,56.10
2018-07-04T15:28:07.611Z,56.90
2018-07-04T15:30:47.409Z,57.70
2018-07-04T15:33:27.202Z,57.40
2018-07-04T15:36:06.875Z,56.10
2018-07-04T15:38:46.533Z,56.10
2018-07-04T15:41:26.258Z,55.70
2018-07-04T15:44:05.769Z,55.00
2018-07-04T15:46:45.440Z,55.00
2018-07-04T15:49:25.279Z,55.30
2018-07-04T15:52:04.886Z,55.50
2018-07-04T15:54:44.463Z,54.10
2018-07-04T15:57:24.070Z,54.40
2018-07-04T16:02:37.632Z,53.30
2018-07-04T16:05:21.380Z,53.10
2018-07-04T16:08:01.199Z,52.20
2018-07-04T16:10:44.291Z,53.40
2018-07-04T16:13:23.859Z,52.60
2018-07-04T16:21:34.474Z,52.20
2018-07-04T16:24:14.181Z,51.70
2018-07-04T16:26:53.959Z,52.80
2018-07-04T16:29:33.838Z,54.40
2018-07-04T16:32:13.630Z,55.20
2018-07-04T16:34:53.168Z,53.80
2018-07-04T16:37:32.673Z,54.10
2018-07-04T16:40:12.282Z,56.70
2018-07-04T16:42:51.941Z,56.50
2018-07-04T16:45:31.669Z,57.30
2018-07-04T16:48:11.282Z,57.40
2018-07-04T16:50:50.852Z,56.10
2018-07-04T16:53:30.493Z,52.00
2018-07-04T16:56:10.074Z,51.90
2018-07-04T16:58:49.687Z,52.00
2018-07-04T17:01:29.165Z,53.60
2018-07-04T17:04:08.616Z,55.40
2018-07-04T17:06:48.244Z,52.70
2018-07-04T17:09:27.969Z,52.10
2018-07-04T17:12:07.633Z,53.50
2018-07-04T17:14:47.257Z,56.50
2018-07-04T17:17:28.581Z,58.60
2018-07-04T17:20:08.131Z,59.40
2018-07-04T17:22:47.670Z,59.50
2018-07-04T17:25:27.242Z,60.20
2018-07-04T17:28:06.706Z,58.30
2018-07-04T17:30:46.356Z,58.40
2018-07-04T17:33:25.977Z,56.90
2018-07-04T17:36:06.345Z,58.50
2018-07-04T17:38:46.035Z,61.90
2018-07-04T17:41:25.802Z,63.40
2018-07-04T17:44:05.342Z,63.30
2018-07-04T17:46:44.990Z,63.40
2018-07-04T17:49:24.492Z,63.00
2018-07-04T17:52:04.159Z,62.50
2018-07-04T17:54:43.806Z,63.60
2018-07-04T17:57:23.413Z,63.70
2018-07-04T18:00:03.000Z,59.00
2018-07-04T18:02:42.579Z,57.80
2018-07-04T18:05:22.068Z,58.00
2018-07-04T18:08:01.674Z,57.90
2018-07-04T18:10:41.143Z,58.40
2018-07-04T18:15:54.341Z,58.10
2018-07-04T18:18:35.669Z,58.10
2018-07-04T18:21:20.642Z,58.40
2018-07-04T18:24:11.135Z,58.60
2018-07-04T18:32:46.065Z,58.40
2018-07-04T18:48:01.126Z,63.60
2018-07-04T18:50:45.305Z,67.60
2018-07-04T18:53:29.541Z,70.00
2018-07-04T19:05:35.747Z,72.70
2018-07-04T19:08:15.724Z,74.40
2018-07-04T19:10:55.484Z,76.00
2018-07-04T19:13:35.415Z,77.30
2018-07-04T19:16:21.577Z,79.40
2018-07-04T19:19:01.659Z,79.30
2018-07-04T19:21:41.587Z,77.40
2018-07-04T19:24:22.636Z,72.70
2018-07-04T19:27:20.449Z,71.40
2018-07-04T19:35:58.213Z,76.20
2018-07-04T19:38:41.168Z,74.00
2018-07-04T19:41:21.028Z,74.00
2018-07-04T19:44:06.086Z,72.90
2018-07-04T19:47:36.055Z,72.70
2018-07-04T19:50:19.619Z,75.50
2018-07-04T19:53:07.054Z,78.80
2018-07-04T20:15:39.460Z,76.70
2018-07-04T20:18:19.903Z,76.60
2018-07-04T20:21:01.454Z,78.80
2018-07-04T20:23:41.778Z,84.20
2018-07-04T20:26:21.960Z,83.90
2018-07-04T20:29:01.666Z,86.20
2018-07-04T20:31:41.396Z,85.70
2018-07-04T20:34:20.972Z,87.60
2018-07-04T20:37:00.673Z,88.40
2018-07-04T20:39:40.489Z,89.20
2018-07-04T20:42:20.387Z,90.30
2018-07-04T20:44:59.979Z,86.40
2018-07-04T20:47:39.638Z,84.80
2018-07-04T20:50:19.307Z,87.50
2018-07-04T20:52:58.944Z,86.20
2018-07-04T20:55:38.924Z,84.40
2018-07-04T20:58:18.578Z,83.50
2018-07-04T21:00:58.341Z,85.80
2018-07-04T21:03:37.936Z,85.60
2018-07-04T21:06:17.589Z,85.10
2018-07-04T21:08:57.406Z,84.70
2018-07-04T21:11:37.015Z,86.20
2018-07-04T21:14:17.073Z,86.50
2018-07-04T21:16:57.117Z,87.70
2018-07-04T21:19:36.892Z,88.10
2018-07-04T21:22:16.533Z,88.00
